Terminal Aerodrome Forecast
Issued by NWS

Home | Current Version | Previous Version | Text Only | Print | Product List | Glossary On
Versions: 1 2 3 4 5 6 7 8 9 10 11 12 13 14 15
003
FTUS44 KLUB 282119 AAB
TAFCDS
TAF AMD
KCDS 282119Z 2821/2918 12015G25KT P6SM BKN025 OVC100
      TEMPO 2821/2824 VRB25G40KT 1SM +TSRAGR OVC010CB
     FM290000 09007KT 6SM -TSRA SCT010 BKN015CB OVC100
     FM290800 03010KT P6SM SCT010 BKN030 PROB30 2914/2918 5SM -TSRA
      BKN020CB=

USA.gov is the U.S. government's official web portal to all federal, state and local government web resources and services.